ルレオ の空港の天気 - METARとTAF

Lulea / Kallax ( ESPA / LLA ) - スウェーデン ルレオ
飛行場実況気象(Metar)
観測時間01/23 04:50 CET (01/23 03:50 UTC)
風向・風速北 2m/s
視程10km以上
天気現象
なし
気温-23℃
湿度76%
気圧1016hPa
METARESPA 230350Z AUTO 35004KT 330V030 9999 NCD M23/M26 Q1016
過去の天気等 Google飛行場航空写真 Wunderground天気予報

過去48時間のMETAR

飛行場予報(TAF)
発表時間: 1/22 21:30 CET (1/22 20:30 UTC)
予報対象時間: 22日22時 CET ~ 23日0時 CET
風向・風速北 3m/s
視程10km以上
なし
TAF COR ESPA 222030Z 2221/2223 35005KT CAVOK